Time;durP1;ratioP1;P1;durP2;ratioP2;P2;SDS_P1;SDS_P2;PMS_P1;PMS_P2;Temp;Humidity;BMP_temperature;BMP_pressure;BME280_temperature;BME280_humidity;BME280_pressure;Samples;Min_cycle;Max_cycle;Signal;HPM_P1;HPM_P2
2023/08/21 00:00:52;;;;;;;5.88;4.18;;;;;;;20.97;53.29;95126.41;5116490;27;20475;-71
2023/08/21 00:03:18;;;;;;;5.13;4.32;;;;;;;20.85;53.61;95122.59;5133514;27;20035;-71
2023/08/21 00:05:43;;;;;;;4.55;4.10;;;;;;;20.92;53.88;95133.22;5117508;27;20035;-71
2023/08/21 00:08:09;;;;;;;5.18;4.65;;;;;;;20.86;54.06;95118.94;5115523;27;20035;-70
2023/08/21 00:10:37;;;;;;;5.28;4.78;;;;;;;20.82;54.45;95122.16;5113638;28;20027;-70
2023/08/21 00:13:02;;;;;;;8.50;4.75;;;;;;;20.60;54.36;95113.31;5095056;28;20496;-70
2023/08/21 00:15:28;;;;;;;4.47;4.05;;;;;;;20.45;55.09;95119.38;5115003;28;20039;-71
2023/08/21 00:17:53;;;;;;;5.68;4.28;;;;;;;20.53;54.84;95127.25;5130444;27;20042;-71
2023/08/21 00:20:19;;;;;;;5.85;4.22;;;;;;;20.58;55.01;95123.22;5135331;27;20397;-70
2023/08/21 00:22:44;;;;;;;5.22;4.40;;;;;;;20.46;54.97;95114.91;5134857;27;20051;-71
2023/08/21 00:25:09;;;;;;;4.90;4.35;;;;;;;20.36;55.16;95117.78;5133821;27;20031;-70
2023/08/21 00:27:35;;;;;;;4.40;4.00;;;;;;;20.31;55.49;95122.81;5134831;27;20026;-71
2023/08/21 00:30:00;;;;;;;5.30;4.63;;;;;;;20.35;55.71;95131.19;5135189;27;20492;-71
2023/08/21 00:32:26;;;;;;;6.10;4.55;;;;;;;20.23;55.84;95128.16;5129569;27;20034;-70
2023/08/21 00:34:51;;;;;;;4.90;4.40;;;;;;;19.99;56.47;95119.47;5133628;27;20552;-70
2023/08/21 00:37:17;;;;;;;4.82;4.28;;;;;;;19.88;56.58;95103.25;5116333;27;20039;-71
2023/08/21 00:39:42;;;;;;;5.18;4.32;;;;;;;20.12;56.73;95131.25;5133251;27;20526;-71
2023/08/21 00:42:07;;;;;;;5.93;4.28;;;;;;;19.98;56.43;95109.09;5113690;27;20493;-71
2023/08/21 00:44:33;;;;;;;8.40;4.97;;;;;;;20.03;57.17;95128.66;5112573;28;20462;-71
2023/08/21 00:46:58;;;;;;;4.80;4.30;;;;;;;20.00;57.18;95129.03;5121284;27;20031;-70
2023/08/21 00:49:24;;;;;;;4.85;4.35;;;;;;;19.98;57.15;95135.47;5134434;27;20035;-70
2023/08/21 00:51:49;;;;;;;6.35;4.75;;;;;;;19.92;57.14;95139.63;5098723;28;20031;-71
2023/08/21 00:54:14;;;;;;;5.45;4.72;;;;;;;19.71;57.95;95135.00;5094367;28;20043;-71
2023/08/21 00:56:40;;;;;;;5.82;4.80;;;;;;;19.13;59.52;95139.72;5121887;27;20027;-70
2023/08/21 00:59:05;;;;;;;4.43;3.90;;;;;;;19.31;58.75;95134.22;5132905;27;20496;-71
2023/08/21 01:01:31;;;;;;;6.38;4.80;;;;;;;19.37;58.50;95130.91;5129723;27;20077;-70
2023/08/21 01:03:56;;;;;;;4.80;4.20;;;;;;;19.45;58.64;95137.94;5132302;27;20031;-71
2023/08/21 01:06:21;;;;;;;5.13;4.63;;;;;;;19.61;58.18;95150.16;5130764;27;20405;-71
2023/08/21 01:08:53;;;;;;;6.38;4.70;;;;;;;19.51;58.01;95145.13;5131447;27;20023;-71
2023/08/21 01:11:24;;;;;;;5.30;4.57;;;;;;;19.49;58.37;95144.47;5102217;28;20122;-71
2023/08/21 01:14:16;;;;;;;5.90;4.57;;;;;;;19.53;58.20;95151.06;5094729;28;20026;-71
2023/08/21 01:16:41;;;;;;;4.80;4.28;;;;;;;19.49;58.66;95144.47;5113311;28;20048;-71
2023/08/21 01:19:10;;;;;;;5.50;4.60;;;;;;;19.37;58.69;95151.16;5094898;28;20498;-71
2023/08/21 01:21:35;;;;;;;5.13;4.63;;;;;;;19.37;58.66;95145.88;5112023;28;20489;-71
2023/08/21 01:24:01;;;;;;;6.32;4.32;;;;;;;19.38;59.00;95144.88;5111889;28;20036;-71
2023/08/21 01:26:26;;;;;;;5.00;4.50;;;;;;;19.22;59.47;95139.69;5111559;28;20023;-71
2023/08/21 01:28:51;;;;;;;6.63;4.68;;;;;;;19.28;59.12;95142.47;5112273;28;20034;-71
2023/08/21 01:31:36;;;;;;;5.30;4.80;;;;;;;19.18;59.68;95129.50;5122109;27;20037;-71
2023/08/21 01:34:04;;;;;;;5.47;4.60;;;;;;;19.27;59.19;95140.00;5132294;27;20083;-71
2023/08/21 01:36:30;;;;;;;5.10;4.60;;;;;;;19.23;59.30;95130.81;5115250;27;20064;-71
2023/08/21 01:38:55;;;;;;;5.43;4.93;;;;;;;19.11;59.32;95136.47;5112663;27;20031;-71
2023/08/21 01:41:26;;;;;;;5.25;4.53;;;;;;;19.13;59.52;95138.91;5078801;28;20080;-71
2023/08/21 01:43:51;;;;;;;;;;;;;;;19.17;59.47;95143.69;5113065;28;20028;-71
2023/08/21 01:46:16;;;;;;;7.33;5.00;;;;;;;19.20;59.65;95145.16;5111517;28;19915;-70
2023/08/21 01:48:42;;;;;;;5.15;4.65;;;;;;;19.17;59.63;95130.50;5112427;28;20031;-71
2023/08/21 01:51:07;;;;;;;5.43;4.80;;;;;;;19.17;59.55;95141.03;5112726;28;20047;-71
2023/08/21 01:53:33;;;;;;;4.97;4.47;;;;;;;19.21;59.75;95144.16;5112707;27;20050;-71
2023/08/21 01:55:58;;;;;;;6.20;4.70;;;;;;;19.27;59.38;95142.63;5115027;27;20023;-71
2023/08/21 01:58:24;;;;;;;5.95;5.07;;;;;;;19.04;60.18;95142.59;5133052;27;20425;-71
2023/08/21 02:00:49;;;;;;;6.45;4.85;;;;;;;19.00;59.97;95134.22;5131201;27;20472;-71
2023/08/21 02:03:15;;;;;;;4.80;4.30;;;;;;;19.18;59.62;95147.13;5115617;27;20035;-71
2023/08/21 02:05:40;;;;;;;5.25;4.68;;;;;;;19.07;59.31;95129.06;5110795;28;20059;-71
2023/08/21 02:08:14;;;;;;;6.60;4.82;;;;;;;19.14;59.32;95138.75;5112520;28;20027;-71
2023/08/21 02:10:49;;;;;;;5.72;4.50;;;;;;;19.07;59.96;95142.25;5126233;27;20107;-71
2023/08/21 02:13:15;;;;;;;5.57;4.93;;;;;;;19.06;59.79;95136.16;5131479;27;20030;-71
2023/08/21 02:15:40;;;;;;;5.03;4.53;;;;;;;19.06;59.83;95127.44;5126976;27;20023;-71
2023/08/21 02:18:06;;;;;;;7.10;4.90;;;;;;;19.06;59.59;95123.00;5076893;28;20031;-71
2023/08/21 02:20:31;;;;;;;6.50;4.63;;;;;;;19.10;60.24;95142.72;5112049;28;20495;-71
2023/08/21 02:22:57;;;;;;;5.72;4.50;;;;;;;18.88;60.29;95128.50;5111977;27;20482;-71
2023/08/21 02:25:22;;;;;;;5.35;4.28;;;;;;;18.93;60.48;95135.88;5124582;27;20031;-71
2023/08/21 02:27:47;;;;;;;4.60;4.20;;;;;;;19.06;60.13;95141.44;5100782;28;20024;-71
2023/08/21 02:30:13;;;;;;;6.53;4.40;;;;;;;18.97;60.15;95138.00;5112212;28;20397;-71
2023/08/21 02:32:40;;;;;;;7.05;4.85;;;;;;;18.93;60.62;95127.97;5129424;27;20450;-71
2023/08/21 02:35:06;;;;;;;5.85;4.50;;;;;;;18.93;60.25;95141.97;5132221;27;20394;-71
2023/08/21 02:37:31;;;;;;;8.40;5.00;;;;;;;18.72;61.14;95132.00;5123770;27;20032;-71
2023/08/21 02:39:57;;;;;;;5.25;4.68;;;;;;;18.50;61.25;95111.66;5112055;28;20477;-71
2023/08/21 02:42:22;;;;;;;5.10;4.50;;;;;;;18.83;61.20;95140.50;5110470;28;20044;-71
2023/08/21 02:44:47;;;;;;;5.03;4.47;;;;;;;18.87;60.85;95147.09;5093420;28;20035;-71
2023/08/21 02:47:13;;;;;;;8.20;4.63;;;;;;;18.75;60.74;95144.84;5112300;27;20035;-71
2023/08/21 02:49:38;;;;;;;5.20;4.70;;;;;;;18.59;61.47;95144.84;5110410;28;20075;-71
2023/08/21 02:52:04;;;;;;;5.90;4.63;;;;;;;18.48;61.74;95146.00;5110453;28;20024;-71
2023/08/21 02:54:29;;;;;;;5.20;4.70;;;;;;;18.43;61.94;95143.06;5115450;27;20039;-71
2023/08/21 02:56:54;;;;;;;5.38;4.45;;;;;;;18.58;61.82;95143.19;5132003;27;20038;-71
2023/08/21 02:59:20;;;;;;;5.43;4.93;;;;;;;18.47;61.97;95151.41;5096475;28;20031;-72
2023/08/21 03:01:45;;;;;;;6.20;5.20;;;;;;;18.60;62.15;95145.66;5131852;27;20045;-71
2023/08/21 03:04:11;;;;;;;5.68;4.90;;;;;;;18.52;62.08;95149.94;5112026;28;20505;-71
2023/08/21 03:06:36;;;;;;;5.13;4.63;;;;;;;18.48;61.88;95153.09;5111382;28;20035;-71
2023/08/21 03:09:02;;;;;;;4.90;4.40;;;;;;;18.43;62.01;95145.69;5116117;27;20023;-70
2023/08/21 03:11:27;;;;;;;5.85;4.60;;;;;;;18.19;62.73;95141.31;5131926;27;20027;-71
2023/08/21 03:13:52;;;;;;;6.07;5.05;;;;;;;18.09;63.10;95151.16;5131558;27;20039;-71
2023/08/21 03:16:18;;;;;;;5.63;4.55;;;;;;;18.19;63.00;95154.44;5122791;27;20497;-71
2023/08/21 03:18:57;;;;;;;7.70;4.72;;;;;;;18.20;62.70;95152.63;5110910;28;20031;-71
2023/08/21 03:21:23;;;;;;;5.88;5.20;;;;;;;18.17;62.76;95160.84;5111142;28;20512;-71
2023/08/21 03:23:51;;;;;;;5.32;4.78;;;;;;;18.01;63.10;95151.16;5109754;28;20059;-71
2023/08/21 03:26:16;;;;;;;6.22;5.63;;;;;;;18.03;63.03;95159.72;5092902;28;20035;-71
2023/08/21 03:28:42;;;;;;;6.20;4.95;;;;;;;17.99;63.33;95159.19;5109581;28;20030;-71
2023/08/21 03:31:07;;;;;;;6.20;4.95;;;;;;;18.17;63.19;95166.09;5113886;28;20651;-71
2023/08/21 03:33:33;;;;;;;5.93;5.10;;;;;;;18.08;63.33;95162.66;5131587;27;20023;-71
2023/08/21 03:35:58;;;;;;;6.80;5.20;;;;;;;18.03;63.81;95168.41;5132113;27;20031;-71
2023/08/21 03:38:23;;;;;;;6.68;5.20;;;;;;;18.09;63.71;95165.13;5129044;28;20019;-71
2023/08/21 03:40:49;;;;;;;5.47;4.85;;;;;;;17.91;64.04;95161.00;5132085;27;20465;-71
2023/08/21 03:43:14;;;;;;;6.32;5.20;;;;;;;17.92;64.03;95152.16;5112491;28;20192;-71
2023/08/21 03:45:39;;;;;;;7.57;5.10;;;;;;;17.90;64.30;95156.75;5111405;28;20023;-71
2023/08/21 03:48:05;;;;;;;7.85;5.10;;;;;;;17.88;64.39;95161.31;5113811;28;20027;-70
2023/08/21 03:50:30;;;;;;;6.50;5.10;;;;;;;17.66;64.28;95147.81;5130463;27;20552;-70
2023/08/21 03:52:56;;;;;;;5.60;5.00;;;;;;;17.74;64.79;95160.13;5130058;28;20536;-71
2023/08/21 03:55:21;;;;;;;5.45;4.95;;;;;;;17.69;64.74;95146.66;5130006;28;20034;-71
2023/08/21 03:57:47;;;;;;;7.22;4.95;;;;;;;17.69;64.16;95142.25;5130160;28;20077;-71
2023/08/21 04:00:12;;;;;;;5.32;4.80;;;;;;;17.79;64.04;95148.19;5130327;28;20061;-71
2023/08/21 04:02:38;;;;;;;5.57;4.97;;;;;;;18.03;64.32;95167.59;5130145;27;20047;-71
2023/08/21 04:05:03;;;;;;;6.03;4.55;;;;;;;18.03;63.72;95160.53;5131616;27;20031;-71
2023/08/21 04:07:29;;;;;;;6.28;4.40;;;;;;;18.22;62.89;95159.38;5113031;28;20031;-71
2023/08/21 04:09:54;;;;;;;5.57;5.05;;;;;;;18.31;62.68;95157.56;5130260;28;20088;-71
2023/08/21 04:12:20;;;;;;;5.75;5.00;;;;;;;18.29;62.07;95126.16;5113142;28;20031;-71
2023/08/21 04:14:45;;;;;;;7.45;4.95;;;;;;;18.54;61.86;95161.13;5131400;27;20031;-71
2023/08/21 04:17:10;;;;;;;6.10;5.13;;;;;;;18.67;61.81;95168.50;5112517;28;20285;-71
2023/08/21 04:19:36;;;;;;;5.20;4.50;;;;;;;18.77;61.37;95162.25;5116734;28;20027;-71
2023/08/21 04:22:01;;;;;;;5.07;4.57;;;;;;;18.82;61.34;95152.03;5113162;28;20024;-71
2023/08/21 04:24:27;;;;;;;5.20;4.57;;;;;;;18.67;62.37;95167.69;5110670;28;20045;-71
2023/08/21 04:26:52;;;;;;;7.43;5.45;;;;;;;18.59;62.44;95163.25;5111003;28;20032;-71
2023/08/21 04:29:17;;;;;;;5.28;4.78;;;;;;;18.64;62.40;95168.84;5114317;28;20031;-71
2023/08/21 04:31:43;;;;;;;7.00;5.40;;;;;;;18.72;62.12;95179.34;5113433;28;20447;-71
2023/08/21 04:34:08;;;;;;;5.97;5.38;;;;;;;18.79;62.47;95179.50;5112668;28;20456;-71
2023/08/21 04:36:34;;;;;;;7.45;6.40;;;;;;;18.89;62.26;95181.97;5114094;27;20328;-71
2023/08/21 04:38:59;;;;;;;7.90;5.35;;;;;;;19.20;61.48;95174.94;5118985;27;20044;-71
2023/08/21 04:41:24;;;;;;;7.53;5.38;;;;;;;19.38;60.88;95169.41;5114074;28;20019;-71
2023/08/21 04:43:50;;;;;;;7.13;5.43;;;;;;;19.48;61.05;95182.38;5119996;27;20424;-71
2023/08/21 04:46:15;;;;;;;6.20;4.95;;;;;;;19.69;59.75;95178.31;5131445;27;20027;-71
2023/08/21 04:48:41;;;;;;;8.80;5.88;;;;;;;19.70;60.23;95179.97;5133837;27;20023;-71
2023/08/21 04:51:06;;;;;;;6.40;5.55;;;;;;;19.92;59.74;95179.19;5135586;27;20035;-71
2023/08/21 04:53:31;;;;;;;7.45;6.20;;;;;;;20.01;59.15;95187.84;5122453;27;20047;-71
2023/08/21 04:55:59;;;;;;;7.32;5.47;;;;;;;20.34;58.00;95190.19;5102380;27;20084;-71
2023/08/21 04:58:24;;;;;;;7.35;5.90;;;;;;;21.19;55.29;95177.47;5115932;27;20066;-71
2023/08/21 05:00:50;;;;;;;9.35;6.05;;;;;;;22.06;53.52;95178.47;5098925;27;20039;-72
2023/08/21 05:03:15;;;;;;;13.65;5.45;;;;;;;22.75;52.23;95188.41;5131101;27;20031;-71
2023/08/21 05:05:41;;;;;;;6.97;5.80;;;;;;;23.48;49.95;95188.03;5128002;27;20401;-72
2023/08/21 05:08:06;;;;;;;8.23;5.97;;;;;;;24.04;48.43;95193.97;5117883;27;20038;-71
2023/08/21 05:10:31;;;;;;;6.93;5.38;;;;;;;24.49;46.69;95196.91;5117171;27;20023;-71
2023/08/21 05:12:57;;;;;;;12.25;5.22;;;;;;;24.64;46.81;95203.84;5092388;27;20031;-71
2023/08/21 05:15:22;;;;;;;10.25;5.70;;;;;;;24.58;46.22;95204.66;5124376;27;20124;-71
2023/08/21 05:17:48;;;;;;;12.10;5.03;;;;;;;24.52;47.99;95196.47;5133317;27;20035;-71
2023/08/21 05:20:14;;;;;;;12.70;5.25;;;;;;;24.35;48.11;95189.06;5127789;27;20037;-71
2023/08/21 05:22:40;;;;;;;12.68;5.82;;;;;;;24.43;47.15;95191.53;5103528;28;20043;-71
2023/08/21 05:25:06;;;;;;;12.77;6.07;;;;;;;24.58;48.15;95204.66;5129190;27;20038;-72
2023/08/21 05:27:32;;;;;;;12.55;6.05;;;;;;;24.37;47.21;95193.16;5094323;28;20034;-71
2023/08/21 05:29:57;;;;;;;8.93;5.97;;;;;;;24.47;48.12;95196.28;5123129;27;20031;-71
2023/08/21 05:32:22;;;;;;;9.88;6.47;;;;;;;24.36;46.88;95194.19;5128547;27;20103;-71
2023/08/21 05:34:48;;;;;;;9.73;6.55;;;;;;;24.46;46.51;95202.63;5119525;27;20038;-71
2023/08/21 05:37:13;;;;;;;9.15;5.80;;;;;;;24.82;46.94;95201.34;5121025;27;20032;-71
2023/08/21 05:39:39;;;;;;;9.68;6.20;;;;;;;24.53;46.50;95198.09;5114899;27;20069;-71
2023/08/21 05:42:04;;;;;;;8.10;5.82;;;;;;;24.98;45.84;95190.28;5126970;27;20470;-71
2023/08/21 05:44:29;;;;;;;6.82;5.05;;;;;;;25.09;46.96;95196.00;5117199;27;20038;-71
2023/08/21 05:46:55;;;;;;;8.00;5.78;;;;;;;24.59;46.53;95185.03;5131640;27;20050;-71
2023/08/21 05:49:20;;;;;;;8.65;5.60;;;;;;;24.60;46.49;95191.97;5121650;27;20077;-71
2023/08/21 05:51:46;;;;;;;7.78;5.07;;;;;;;24.86;46.43;95186.66;5121373;27;20500;-71
2023/08/21 05:54:11;;;;;;;11.32;5.95;;;;;;;24.93;46.63;95182.16;5130168;27;20094;-71
2023/08/21 05:56:37;;;;;;;7.22;6.22;;;;;;;24.86;46.16;95191.97;5106717;27;20104;-71
2023/08/21 05:59:02;;;;;;;7.68;5.53;;;;;;;25.11;46.47;95191.31;5121678;27;20027;-72
2023/08/21 06:01:27;;;;;;;9.38;5.65;;;;;;;25.18;45.99;95185.00;5129966;27;20043;-74
2023/08/21 06:03:54;;;;;;;9.30;5.65;;;;;;;24.96;45.46;95181.75;5129719;27;20471;-77
2023/08/21 06:06:19;;;;;;;7.32;5.18;;;;;;;25.32;46.13;95193.72;5111713;27;20031;-72
2023/08/21 06:08:45;;;;;;;7.68;5.20;;;;;;;25.51;45.48;95186.69;5125527;27;20053;-72
2023/08/21 06:11:10;;;;;;;9.55;6.03;;;;;;;25.70;44.29;95192.97;5122281;27;20035;-70
2023/08/21 06:13:36;;;;;;;9.75;5.47;;;;;;;25.47;44.73;95204.13;5118861;27;20436;-74
2023/08/21 06:16:01;;;;;;;9.23;5.35;;;;;;;25.58;43.98;95197.31;5113949;27;20428;-70
2023/08/21 06:18:27;;;;;;;5.82;4.85;;;;;;;26.08;44.03;95181.53;5112252;28;20104;-79
2023/08/21 06:20:54;;;;;;;6.28;5.18;;;;;;;25.94;44.03;95199.44;5127406;27;20035;-79
2023/08/21 06:23:23;;;;;;;6.47;5.35;;;;;;;25.67;44.43;95181.94;5096386;27;20485;-72
2023/08/21 06:25:49;;;;;;;7.45;5.38;;;;;;;26.05;43.91;95193.44;5111378;27;20024;-72
2023/08/21 06:28:14;;;;;;;6.22;5.25;;;;;;;26.13;42.77;95197.66;5093446;28;20081;-71
2023/08/21 06:30:39;;;;;;;11.57;5.38;;;;;;;25.95;42.47;95182.44;5110971;28;20103;-75
2023/08/21 06:33:05;;;;;;;7.57;4.90;;;;;;;25.96;43.03;95197.34;5110109;27;20047;-72
2023/08/21 06:35:30;;;;;;;10.85;4.93;;;;;;;25.84;42.85;95199.88;5115427;27;20026;-72
2023/08/21 06:37:56;;;;;;;11.43;5.03;;;;;;;26.22;42.95;95201.72;5121828;27;20444;-72
2023/08/21 06:40:21;;;;;;;9.45;5.45;;;;;;;26.07;42.42;95190.53;5132616;27;20038;-72
2023/08/21 06:42:49;;;;;;;10.50;5.15;;;;;;;26.19;42.43;95202.16;5114315;27;20028;-72
2023/08/21 06:45:14;;;;;;;7.63;4.90;;;;;;;26.70;42.28;95198.50;5127839;27;20035;-72
2023/08/21 06:47:40;;;;;;;8.27;4.80;;;;;;;26.81;40.79;95196.19;5113690;27;20034;-72
2023/08/21 06:50:06;;;;;;;9.60;4.90;;;;;;;26.56;41.24;95197.00;5130470;27;20046;-72
2023/08/21 06:52:31;;;;;;;8.35;5.05;;;;;;;26.63;41.04;95196.94;5130154;27;20088;-73
2023/08/21 06:54:56;;;;;;;7.35;5.00;;;;;;;26.73;40.50;95191.94;5130967;27;20477;-72
2023/08/21 06:57:22;;;;;;;6.68;4.75;;;;;;;26.86;39.94;95199.81;5130942;27;20027;-72
2023/08/21 06:59:48;;;;;;;9.15;4.57;;;;;;;26.86;40.61;95201.69;5126034;27;20036;-73
2023/08/21 07:02:13;;;;;;;7.05;4.78;;;;;;;27.23;39.70;95175.09;5120388;27;20026;-73
2023/08/21 07:04:39;;;;;;;7.15;4.90;;;;;;;27.03;40.02;95181.41;5110488;28;20040;-73
2023/08/21 07:07:04;;;;;;;6.68;5.07;;;;;;;27.21;39.76;95193.16;5128762;27;20489;-73
2023/08/21 07:09:29;;;;;;;10.48;4.85;;;;;;;27.47;39.47;95192.03;5132220;27;20085;-73
2023/08/21 07:11:55;;;;;;;6.15;4.63;;;;;;;27.94;38.84;95198.44;5130978;27;20035;-73
2023/08/21 07:14:20;;;;;;;7.15;4.53;;;;;;;28.16;38.91;95195.28;5132052;27;20034;-73
2023/08/21 07:16:46;;;;;;;5.80;4.43;;;;;;;28.48;38.05;95194.00;5130835;28;20031;-73
2023/08/21 07:19:11;;;;;;;7.50;5.30;;;;;;;28.58;37.40;95190.75;5115479;27;20390;-73
2023/08/21 07:21:38;;;;;;;8.07;4.68;;;;;;;28.67;37.35;95183.22;5124940;28;20101;-73
2023/08/21 07:24:03;;;;;;;7.20;5.25;;;;;;;28.62;37.29;95199.13;5130723;28;20023;-73
2023/08/21 07:26:29;;;;;;;7.05;4.85;;;;;;;28.87;36.61;95186.38;5130559;28;20027;-73
2023/08/21 07:28:54;;;;;;;8.23;4.78;;;;;;;28.61;37.43;95192.16;5111398;28;20019;-71
2023/08/21 07:31:20;;;;;;;7.97;4.82;;;;;;;28.76;37.49;95189.03;5131698;27;20027;-71
2023/08/21 07:33:45;;;;;;;6.93;5.22;;;;;;;28.66;38.05;95190.41;5128487;28;20027;-71
2023/08/21 07:36:16;;;;;;;7.65;5.20;;;;;;;28.69;37.18;95179.25;5123967;27;20065;-71
2023/08/21 07:38:42;;;;;;;11.18;5.57;;;;;;;29.11;36.89;95192.56;5130277;28;20039;-72
2023/08/21 07:41:10;;;;;;;8.35;5.25;;;;;;;29.24;36.06;95188.00;5110327;28;20027;-72
2023/08/21 07:43:36;;;;;;;15.43;5.60;;;;;;;29.19;36.32;95194.06;5093453;28;20595;-72
2023/08/21 07:46:05;;;;;;;9.48;5.30;;;;;;;28.97;37.02;95191.13;5110156;28;20024;-72
2023/08/21 07:48:30;;;;;;;7.70;5.40;;;;;;;28.51;37.66;95166.81;5111084;28;20547;-71
2023/08/21 07:50:56;;;;;;;8.40;5.07;;;;;;;29.07;37.37;95193.25;5111662;28;20026;-71
2023/08/21 07:53:22;;;;;;;9.50;5.38;;;;;;;29.40;35.89;95188.09;5109278;28;20048;-71
2023/08/21 07:55:47;;;;;;;12.07;5.93;;;;;;;29.27;36.29;95183.00;5095214;28;20046;-71
2023/08/21 07:58:13;;;;;;;11.70;5.70;;;;;;;29.02;36.57;95183.22;5113511;28;20036;-71
2023/08/21 08:00:39;;;;;;;7.88;5.88;;;;;;;28.82;37.23;95186.25;5091920;28;20027;-71
2023/08/21 08:03:05;;;;;;;11.65;6.00;;;;;;;29.15;36.84;95183.03;5093656;28;20044;-71
2023/08/21 08:05:31;;;;;;;8.48;5.50;;;;;;;29.52;36.25;95176.56;5115161;28;20477;-72
2023/08/21 08:07:56;;;;;;;8.43;5.25;;;;;;;29.66;36.43;95166.44;5114711;28;20039;-72
2023/08/21 08:10:21;;;;;;;8.48;5.30;;;;;;;29.82;35.52;95169.16;5114955;28;20061;-72
2023/08/21 08:12:47;;;;;;;6.55;5.60;;;;;;;29.97;35.52;95170.50;5114600;27;20055;-72
2023/08/21 08:15:12;;;;;;;8.13;5.80;;;;;;;29.81;34.91;95158.69;5113386;28;20057;-72
2023/08/21 08:17:38;;;;;;;11.65;5.22;;;;;;;30.26;34.58;95169.47;5113590;28;20031;-72
2023/08/21 08:20:06;;;;;;;8.90;5.93;;;;;;;29.89;35.24;95170.88;5114781;28;20469;-71
2023/08/21 08:22:31;;;;;;;9.35;5.47;;;;;;;30.03;33.08;95151.63;5114443;28;20047;-73
2023/08/21 08:24:56;;;;;;;7.72;4.85;;;;;;;29.70;33.87;95156.84;5113331;28;20459;-71
2023/08/21 08:27:22;;;;;;;5.07;4.57;;;;;;;29.55;33.58;95162.69;5114407;28;20031;-72
2023/08/21 08:29:47;;;;;;;8.20;4.45;;;;;;;30.12;33.56;95156.59;5114569;28;20035;-72
2023/08/21 08:32:13;;;;;;;7.65;5.03;;;;;;;30.14;33.18;95157.13;5114473;28;20020;-71
2023/08/21 08:34:38;;;;;;;6.22;5.20;;;;;;;29.94;33.41;95152.22;5114331;28;20027;-71
2023/08/21 08:37:03;;;;;;;9.82;5.50;;;;;;;30.52;32.59;95153.78;5095835;28;20611;-72
2023/08/21 08:39:29;;;;;;;7.82;4.63;;;;;;;30.50;32.44;95155.91;5114200;28;20118;-71
2023/08/21 08:41:58;;;;;;;7.05;4.97;;;;;;;30.58;32.05;95152.81;5112935;28;20477;-72
2023/08/21 08:44:25;;;;;;;8.67;4.80;;;;;;;30.61;32.13;95152.31;5079166;28;20048;-72
2023/08/21 08:46:51;;;;;;;8.13;5.00;;;;;;;30.57;31.31;95145.84;5095800;28;20352;-71
2023/08/21 08:49:16;;;;;;;6.38;4.78;;;;;;;30.33;32.42;95133.66;5112689;28;20537;-71
2023/08/21 08:51:41;;;;;;;6.53;4.63;;;;;;;30.26;31.79;95142.66;5112724;28;20031;-72
2023/08/21 08:54:07;;;;;;;8.32;5.35;;;;;;;30.45;32.34;95137.06;5112414;28;20512;-72
2023/08/21 08:56:32;;;;;;;8.20;4.72;;;;;;;30.67;32.21;95129.09;5096274;27;20015;-71
2023/08/21 08:58:58;;;;;;;6.40;4.40;;;;;;;30.79;32.83;95131.69;5127888;27;20027;-72
2023/08/21 09:01:23;;;;;;;6.07;4.03;;;;;;;30.62;30.94;95134.38;5129551;27;20024;-72
2023/08/21 09:03:50;;;;;;;6.65;3.97;;;;;;;30.96;30.58;95134.38;5111285;28;20539;-71
2023/08/21 09:06:15;;;;;;;5.03;4.28;;;;;;;30.91;30.66;95135.91;5093395;28;20051;-71
2023/08/21 09:08:55;;;;;;;8.27;4.68;;;;;;;31.07;30.45;95136.16;5110066;28;20020;-72
2023/08/21 09:11:20;;;;;;;5.15;4.50;;;;;;;31.23;31.45;95126.41;5110653;28;20032;-71
2023/08/21 09:13:45;;;;;;;9.35;5.60;;;;;;;31.28;30.82;95123.78;5111199;28;20032;-72
2023/08/21 09:16:11;;;;;;;7.93;4.20;;;;;;;31.10;30.88;95128.41;5112247;28;20077;-71
2023/08/21 09:18:36;;;;;;;7.20;4.93;;;;;;;31.24;31.14;95133.41;5095011;28;20410;-72
2023/08/21 09:21:02;;;;;;;6.05;4.47;;;;;;;31.30;31.48;95119.00;5095229;28;20031;-71
2023/08/21 09:23:28;;;;;;;7.13;4.65;;;;;;;31.14;30.93;95118.78;5112013;28;20031;-72
2023/08/21 09:25:53;;;;;;;7.38;4.55;;;;;;;30.92;31.59;95120.63;5095298;28;20033;-71
2023/08/21 09:28:22;;;;;;;6.80;4.53;;;;;;;31.13;30.65;95122.53;5113115;28;20038;-72
2023/08/21 09:30:52;;;;;;;8.88;4.68;;;;;;;31.03;30.34;95118.91;5113113;28;20049;-72
2023/08/21 09:33:21;;;;;;;5.40;4.32;;;;;;;31.23;30.73;95113.00;5111775;28;20044;-72
2023/08/21 09:35:47;;;;;;;6.55;4.50;;;;;;;31.29;31.13;95117.38;5095500;28;20031;-72
2023/08/21 09:38:13;;;;;;;5.45;4.32;;;;;;;31.65;29.32;95115.13;5112929;28;20162;-72
2023/08/21 09:40:40;;;;;;;6.85;4.20;;;;;;;31.52;28.95;95108.28;5129014;27;20434;-71
2023/08/21 09:43:05;;;;;;;5.57;4.40;;;;;;;31.27;29.32;95114.94;5094880;28;20104;-72
2023/08/21 09:45:31;;;;;;;7.53;4.30;;;;;;;31.05;30.04;95108.75;5128692;27;20497;-72
2023/08/21 09:47:56;;;;;;;7.22;4.47;;;;;;;31.12;29.13;95107.53;5094617;28;20436;-72
2023/08/21 09:50:22;;;;;;;5.63;4.22;;;;;;;31.24;30.33;95101.22;5111655;28;20031;-72
2023/08/21 09:52:47;;;;;;;5.05;3.97;;;;;;;31.25;28.85;95102.84;5111152;28;20044;-71
2023/08/21 09:55:16;;;;;;;7.22;4.13;;;;;;;31.23;29.87;95075.44;5128593;27;20085;-71
2023/08/21 09:57:41;;;;;;;7.05;4.50;;;;;;;31.06;29.28;95073.63;5112594;28;20039;-72
2023/08/21 10:00:19;;;;;;;6.40;4.43;;;;;;;31.24;30.39;95101.22;5111378;28;20036;-71
2023/08/21 10:02:48;;;;;;;8.05;4.18;;;;;;;31.29;29.49;95090.56;5111440;28;20057;-72
2023/08/21 10:05:16;;;;;;;11.13;3.97;;;;;;;31.30;29.66;95084.91;5077735;28;20036;-71
2023/08/21 10:07:42;;;;;;;7.95;4.60;;;;;;;31.26;29.08;95082.97;5077282;28;20035;-72
2023/08/21 10:10:08;;;;;;;7.38;4.47;;;;;;;31.14;29.33;95086.59;5094384;28;20032;-71
2023/08/21 10:12:33;;;;;;;7.50;4.32;;;;;;;31.22;28.98;95087.25;5111104;28;20069;-71
2023/08/21 10:14:58;;;;;;;6.35;4.20;;;;;;;31.09;28.80;95078.50;5112543;28;20036;-71
2023/08/21 10:17:24;;;;;;;8.35;4.10;;;;;;;31.06;29.14;95068.25;5093976;28;20031;-72
2023/08/21 10:19:55;;;;;;;7.47;4.25;;;;;;;30.99;28.89;95066.84;5111081;28;20436;-72
2023/08/21 10:22:41;;;;;;;8.05;4.13;;;;;;;30.92;29.31;95073.19;5110873;28;20043;-71
2023/08/21 10:25:25;;;;;;;7.05;4.50;;;;;;;31.20;28.75;95070.56;5110907;28;20028;-72
2023/08/21 10:28:02;;;;;;;6.32;4.40;;;;;;;31.19;28.50;95071.66;5127651;27;20441;-72
2023/08/21 10:30:28;;;;;;;8.32;3.97;;;;;;;31.28;29.04;95068.25;5111069;28;20127;-71
2023/08/21 10:32:54;;;;;;;5.18;4.40;;;;;;;31.34;28.90;95064.59;5111896;28;20257;-71
2023/08/21 10:35:24;;;;;;;6.55;4.40;;;;;;;31.20;28.63;95047.22;5110713;28;20111;-72
2023/08/21 10:38:08;;;;;;;5.90;4.25;;;;;;;31.26;28.79;95058.84;5110630;28;20039;-71
2023/08/21 10:40:37;;;;;;;8.55;4.15;;;;;;;31.33;28.68;95051.41;5112184;28;20098;-71
2023/08/21 10:43:02;;;;;;;5.18;4.28;;;;;;;31.13;28.55;95036.72;5127643;27;20519;-71
2023/08/21 10:45:28;;;;;;;6.28;4.35;;;;;;;31.38;28.52;95048.81;5110610;28;20035;-71
2023/08/21 10:47:57;;;;;;;5.00;4.13;;;;;;;31.17;28.54;95034.31;5093524;28;20550;-72
2023/08/21 10:50:22;;;;;;;5.45;3.70;;;;;;;31.36;27.45;95041.00;5093762;28;20031;-71
2023/08/21 10:52:48;;;;;;;7.95;4.28;;;;;;;31.46;28.71;95037.63;5110238;28;20047;-71
2023/08/21 10:55:14;;;;;;;7.03;3.95;;;;;;;31.37;27.98;95039.97;5110462;28;20035;-72
2023/08/21 10:57:41;;;;;;;5.00;3.85;;;;;;;31.39;27.84;95028.97;5127323;27;20027;-72
2023/08/21 11:00:11;;;;;;;4.43;4.03;;;;;;;31.51;27.56;95026.13;5127401;27;20042;-71
2023/08/21 11:02:38;;;;;;;5.30;4.00;;;;;;;31.41;26.92;95023.34;5093911;28;20023;-72
2023/08/21 11:05:04;;;;;;;6.20;4.22;;;;;;;31.49;27.70;95029.09;5110426;28;20036;-71
2023/08/21 11:07:29;;;;;;;6.90;4.20;;;;;;;31.48;27.55;95024.78;5093429;28;20528;-71
2023/08/21 11:09:55;;;;;;;8.40;4.15;;;;;;;31.48;27.87;95029.31;5110292;28;20031;-72
2023/08/21 11:12:21;;;;;;;6.75;4.18;;;;;;;31.22;28.07;95006.75;5109982;28;20038;-72
2023/08/21 11:14:47;;;;;;;7.30;4.30;;;;;;;31.28;28.06;95030.69;5127239;27;20539;-72
2023/08/21 11:17:12;;;;;;;6.80;4.20;;;;;;;31.24;28.64;95031.47;5127124;28;20028;-71
2023/08/21 11:19:38;;;;;;;4.75;4.25;;;;;;;31.32;28.69;95018.41;5093227;28;20032;-71
2023/08/21 11:22:05;;;;;;;6.20;4.18;;;;;;;31.25;28.23;95022.34;5110043;28;20390;-71
2023/08/21 11:24:38;;;;;;;7.43;4.20;;;;;;;31.19;28.26;95021.47;5110015;28;20443;-71
2023/08/21 11:27:07;;;;;;;5.85;3.70;;;;;;;31.15;28.26;95021.19;5111257;28;20024;-72
2023/08/21 11:29:43;;;;;;;7.90;4.13;;;;;;;30.97;28.08;94996.53;5111463;28;20106;-71